Time;durP1;ratioP1;P1;durP2;ratioP2;P2;SDS_P1;SDS_P2;PMS_P1;PMS_P2;Temp;Humidity;BMP_temperature;BMP_pressure;BME280_temperature;BME280_humidity;BME280_pressure;Samples;Min_cycle;Max_cycle;Signal;HPM_P1;HPM_P2
2023/01/19 00:01:19;;;;;;;21.83;11.88;;;;;;;;;;5035813;28;20060;-64
2023/01/19 00:03:45;;;;;;;21.80;14.77;;;;;;;;;;5039176;28;20408;-64
2023/01/19 00:06:11;;;;;;;18.15;11.40;;;;;;;;;;5036036;28;20029;-64
2023/01/19 00:08:37;;;;;;;16.23;11.13;;;;;;;;;;5036178;28;20025;-65
2023/01/19 00:11:03;;;;;;;17.30;11.95;;;;;;;;;;5035706;28;20761;-64
2023/01/19 00:13:29;;;;;;;14.43;10.40;;;;;;;;;;5037817;28;20037;-65
2023/01/19 00:15:55;;;;;;;21.77;12.75;;;;;;;;;;5039797;28;20518;-64
2023/01/19 00:18:20;;;;;;;15.30;10.75;;;;;;;;;;5036966;28;20053;-65
2023/01/19 00:20:47;;;;;;;24.15;11.98;;;;;;;;;;5038444;28;20037;-65
2023/01/19 00:23:14;;;;;;;16.90;11.85;;;;;;;;;;5039793;28;20132;-65
2023/01/19 00:25:41;;;;;;;14.60;10.00;;;;;;;;;;5039128;28;20415;-65
2023/01/19 00:28:11;;;;;;;19.10;11.90;;;;;;;;;;5036874;28;20099;-66
2023/01/19 00:30:38;;;;;;;20.25;13.07;;;;;;;;;;5042437;28;20391;-66
2023/01/19 00:33:04;;;;;;;20.55;12.85;;;;;;;;;;5038844;28;20055;-66
2023/01/19 00:35:29;;;;;;;21.13;11.38;;;;;;;;;;5035558;28;20041;-64
2023/01/19 00:37:56;;;;;;;22.05;11.45;;;;;;;;;;5038381;28;21056;-65
2023/01/19 00:40:22;;;;;;;18.88;10.75;;;;;;;;;;5040260;28;20029;-65
2023/01/19 00:42:47;;;;;;;17.10;11.38;;;;;;;;;;5038893;28;20041;-65
2023/01/19 00:45:15;;;;;;;16.67;11.70;;;;;;;;;;5039239;28;20033;-64
2023/01/19 00:47:41;;;;;;;20.90;11.63;;;;;;;;;;5034545;28;20041;-64
2023/01/19 00:50:10;;;;;;;18.85;10.60;;;;;;;;;;5036214;28;20086;-65
2023/01/19 00:52:37;;;;;;;16.00;10.07;;;;;;;;;;5036766;28;20136;-64
2023/01/19 00:55:03;;;;;;;18.20;10.60;;;;;;;;;;5036236;28;20036;-65
2023/01/19 00:57:29;;;;;;;16.77;11.15;;;;;;;;;;5032525;28;20044;-64
2023/01/19 00:59:55;;;;;;;17.48;11.07;;;;;;;;;;5034166;28;20094;-64
2023/01/19 01:02:21;;;;;;;14.55;10.20;;;;;;;;;;5041261;28;20045;-65
2023/01/19 01:04:46;;;;;;;20.17;11.43;;;;;;;;;;5033891;28;20032;-64
2023/01/19 01:07:12;;;;;;;18.25;10.95;;;;;;;;;;5032593;28;20033;-65
2023/01/19 01:09:38;;;;;;;21.88;11.55;;;;;;;;;;5039399;28;20029;-65
2023/01/19 01:12:03;;;;;;;20.48;12.50;;;;;;;;;;5037803;28;20037;-65
2023/01/19 01:14:29;;;;;;;13.13;9.55;;;;;;;;;;5034277;28;20065;-64
2023/01/19 01:16:55;;;;;;;14.35;10.13;;;;;;;;;;5034140;28;20037;-65
2023/01/19 01:19:20;;;;;;;16.25;10.85;;;;;;;;;;5038188;28;20029;-64
2023/01/19 01:21:46;;;;;;;14.80;11.35;;;;;;;;;;5036463;28;20040;-65
2023/01/19 01:24:12;;;;;;;16.05;10.57;;;;;;;;;;5032202;28;20053;-64
2023/01/19 01:26:37;;;;;;;16.15;10.75;;;;;;;;;;5031796;28;20038;-65
2023/01/19 01:29:04;;;;;;;17.65;11.07;;;;;;;;;;5041852;28;20033;-65
2023/01/19 01:31:30;;;;;;;19.95;12.60;;;;;;;;;;5037343;28;20036;-65
2023/01/19 01:33:56;;;;;;;22.83;13.00;;;;;;;;;;5036610;28;20036;-65
2023/01/19 01:36:22;;;;;;;19.73;11.43;;;;;;;;;;5037320;28;20170;-65
2023/01/19 01:38:47;;;;;;;18.35;12.18;;;;;;;;;;5041056;28;20086;-65
2023/01/19 01:41:13;;;;;;;22.15;12.30;;;;;;;;;;5036902;28;20044;-65
2023/01/19 01:43:49;;;;;;;16.85;10.57;;;;;;;;;;5035507;28;20060;-65
2023/01/19 01:46:16;;;;;;;21.80;11.23;;;;;;;;;;5037992;28;20078;-65
2023/01/19 01:49:00;;;;;;;22.40;12.02;;;;;;;;;;5035264;28;20534;-65
2023/01/19 01:51:36;;;;;;;21.08;11.93;;;;;;;;;;5034399;28;20667;-65
2023/01/19 01:54:17;;;;;;;17.20;11.98;;;;;;;;;;5038186;28;20488;-64
2023/01/19 01:56:46;;;;;;;25.40;14.25;;;;;;;;;;5037031;28;20041;-65
2023/01/19 01:59:28;;;;;;;16.35;11.63;;;;;;;;;;5036727;28;20115;-65
2023/01/19 02:04:51;;;;;;;26.33;13.90;;;;;;;;;;5037551;28;20515;-65
2023/01/19 02:15:43;;;;;;;14.00;10.23;;;;;;;;;;5036988;28;20553;-66
2023/01/19 02:18:09;;;;;;;16.88;10.10;;;;;;;;;;5035036;28;20037;-66
2023/01/19 02:20:36;;;;;;;15.52;11.15;;;;;;;;;;5037273;28;20698;-66
2023/01/19 02:23:07;;;;;;;14.85;9.63;;;;;;;;;;5039708;28;20037;-66
2023/01/19 02:25:33;;;;;;;17.73;9.88;;;;;;;;;;5038590;28;20806;-65
2023/01/19 02:27:59;;;;;;;4.53;4.07;;;;;;;;;;5031614;28;20037;-66
2023/01/19 02:30:26;;;;;;;8.15;7.13;;;;;;;;;;5037314;28;20036;-65
2023/01/19 02:32:52;;;;;;;12.80;8.93;;;;;;;;;;5034878;28;20032;-66
2023/01/19 02:35:18;;;;;;;5.63;5.05;;;;;;;;;;5032066;28;20118;-66
2023/01/19 02:37:44;;;;;;;6.47;5.88;;;;;;;;;;5035893;28;20040;-65
2023/01/19 02:40:13;;;;;;;7.00;6.25;;;;;;;;;;5034255;28;20463;-65
2023/01/19 02:42:51;;;;;;;11.48;6.75;;;;;;;;;;5033261;28;20033;-65
2023/01/19 02:45:20;;;;;;;10.63;6.85;;;;;;;;;;5032602;28;20034;-65
2023/01/19 02:47:48;;;;;;;;;;;;;;;;;;5035540;28;20083;-64
2023/01/19 02:50:36;;;;;;;13.70;9.13;;;;;;;;;;5036376;28;19923;-64
2023/01/19 02:53:32;;;;;;;12.00;8.00;;;;;;;;;;5031693;28;20068;-64
2023/01/19 02:56:27;;;;;;;12.57;8.02;;;;;;;;;;5033735;28;20033;-65
2023/01/19 02:59:04;;;;;;;14.13;9.35;;;;;;;;;;4997572;28;20133;-66
2023/01/19 03:01:50;;;;;;;18.58;10.60;;;;;;;;;;5035849;28;20044;-66
2023/01/19 03:04:51;;;;;;;16.95;10.65;;;;;;;;;;5035096;28;20061;-66
2023/01/19 03:07:36;;;;;;;16.02;9.70;;;;;;;;;;5022429;28;20071;-66
2023/01/19 03:10:19;;;;;;;14.57;9.90;;;;;;;;;;5044803;28;20049;-64
2023/01/19 03:13:06;;;;;;;15.63;9.75;;;;;;;;;;5034270;28;20048;-66
2023/01/19 03:15:46;;;;;;;14.23;9.73;;;;;;;;;;5034680;28;20461;-66
2023/01/19 03:18:14;;;;;;;12.50;8.95;;;;;;;;;;5029478;28;20693;-65
2023/01/19 03:20:42;;;;;;;12.93;7.60;;;;;;;;;;5033402;28;20044;-64
2023/01/19 03:23:11;;;;;;;17.80;10.40;;;;;;;;;;5037551;28;20029;-65
2023/01/19 03:25:42;;;;;;;7.85;4.68;;;;;;;;;;5027559;28;20388;-64
2023/01/19 03:28:08;;;;;;;4.32;4.05;;;;;;;;;;5034923;28;20647;-65
2023/01/19 03:30:39;;;;;;;6.60;5.75;;;;;;;;;;5038591;28;20222;-65
2023/01/19 03:33:15;;;;;;;5.10;4.70;;;;;;;;;;5033708;28;20036;-63
2023/01/19 03:35:44;;;;;;;7.97;7.10;;;;;;;;;;5031666;28;20568;-65
2023/01/19 03:38:13;;;;;;;;;;;;;;;;;;5031336;28;20025;-65
2023/01/19 03:40:40;;;;;;;7.78;6.97;;;;;;;;;;5037852;28;20299;-65
2023/01/19 03:43:07;;;;;;;4.30;4.00;;;;;;;;;;5030465;28;20049;-64
2023/01/19 03:45:35;;;;;;;6.00;5.40;;;;;;;;;;5036352;28;20118;-64
2023/01/19 03:48:02;;;;;;;11.57;9.00;;;;;;;;;;5037052;28;20025;-67
2023/01/19 03:50:29;;;;;;;13.55;8.30;;;;;;;;;;5037236;28;20064;-64
2023/01/19 03:53:12;;;;;;;5.95;5.45;;;;;;;;;;5027187;28;20033;-65
2023/01/19 03:55:42;;;;;;;11.27;7.93;;;;;;;;;;5038567;28;20048;-65
2023/01/19 03:58:07;;;;;;;6.03;4.25;;;;;;;;;;5033473;28;20053;-66
2023/01/19 04:00:35;;;;;;;14.40;10.38;;;;;;;;;;5038976;28;20113;-65
2023/01/19 04:03:02;;;;;;;14.77;7.78;;;;;;;;;;5032749;28;20122;-65
2023/01/19 04:05:28;;;;;;;10.95;8.40;;;;;;;;;;5018058;28;20112;-64
2023/01/19 04:07:54;;;;;;;18.00;10.48;;;;;;;;;;5036886;28;20141;-66
2023/01/19 04:10:20;;;;;;;16.25;10.57;;;;;;;;;;5030913;28;20046;-64
2023/01/19 04:12:46;;;;;;;7.40;6.68;;;;;;;;;;5038191;28;20036;-65
2023/01/19 04:15:12;;;;;;;13.18;8.93;;;;;;;;;;5034220;28;20132;-64
2023/01/19 04:17:38;;;;;;;9.18;7.30;;;;;;;;;;5031338;28;20045;-65
2023/01/19 04:20:05;;;;;;;16.45;10.48;;;;;;;;;;5032121;28;20551;-65
2023/01/19 04:22:30;;;;;;;12.35;9.43;;;;;;;;;;5034509;28;20045;-65
2023/01/19 04:24:56;;;;;;;18.90;10.65;;;;;;;;;;5037423;28;20040;-65
2023/01/19 04:27:22;;;;;;;19.02;10.82;;;;;;;;;;5035208;28;20032;-66
2023/01/19 04:29:47;;;;;;;10.27;7.97;;;;;;;;;;5029905;28;20848;-65
2023/01/19 04:32:13;;;;;;;21.08;11.10;;;;;;;;;;5039293;28;20119;-65
2023/01/19 04:34:39;;;;;;;11.98;8.88;;;;;;;;;;5039164;28;20033;-65
2023/01/19 04:37:05;;;;;;;13.20;9.63;;;;;;;;;;5036672;28;20040;-66
2023/01/19 04:39:30;;;;;;;17.88;10.40;;;;;;;;;;5036202;28;20033;-64
2023/01/19 04:41:59;;;;;;;8.70;6.60;;;;;;;;;;5019251;28;20041;-64
2023/01/19 04:44:26;;;;;;;12.50;9.07;;;;;;;;;;5036302;28;20496;-66
2023/01/19 04:46:52;;;;;;;12.25;8.52;;;;;;;;;;5033056;28;20048;-64
2023/01/19 04:49:18;;;;;;;21.25;10.75;;;;;;;;;;5036429;28;20037;-66
2023/01/19 04:51:44;;;;;;;10.70;8.00;;;;;;;;;;5038173;28;20078;-66
2023/01/19 04:54:09;;;;;;;16.92;10.77;;;;;;;;;;5037089;28;20709;-65
2023/01/19 04:56:35;;;;;;;16.75;10.60;;;;;;;;;;5036606;28;20037;-65
2023/01/19 04:59:01;;;;;;;10.85;7.82;;;;;;;;;;5037825;28;20052;-66
2023/01/19 05:01:27;;;;;;;16.27;10.77;;;;;;;;;;5038188;28;20048;-66
2023/01/19 05:03:53;;;;;;;20.48;10.52;;;;;;;;;;5037310;28;20045;-65
2023/01/19 05:06:18;;;;;;;17.05;11.23;;;;;;;;;;5037485;28;20030;-66
2023/01/19 05:08:44;;;;;;;16.42;10.80;;;;;;;;;;5036388;28;20072;-66
2023/01/19 05:11:10;;;;;;;15.40;10.75;;;;;;;;;;5034572;28;20369;-66
2023/01/19 05:13:35;;;;;;;14.82;10.40;;;;;;;;;;5033165;28;20533;-66
2023/01/19 05:16:01;;;;;;;20.23;9.82;;;;;;;;;;5030463;28;20836;-64
2023/01/19 05:18:27;;;;;;;16.80;9.75;;;;;;;;;;5037689;28;20045;-66
2023/01/19 05:20:52;;;;;;;11.63;9.48;;;;;;;;;;5037812;28;20069;-66
2023/01/19 05:23:18;;;;;;;17.52;10.98;;;;;;;;;;5037565;28;20029;-65
2023/01/19 05:25:43;;;;;;;11.98;9.48;;;;;;;;;;5033770;28;20411;-66
2023/01/19 05:28:10;;;;;;;17.65;11.07;;;;;;;;;;5033021;28;20036;-66
2023/01/19 05:30:36;;;;;;;16.90;11.27;;;;;;;;;;5038055;28;20045;-66
2023/01/19 05:33:02;;;;;;;7.50;6.32;;;;;;;;;;5038128;28;20114;-65
2023/01/19 05:35:28;;;;;;;18.50;9.55;;;;;;;;;;5031999;28;21106;-66
2023/01/19 05:37:53;;;;;;;13.52;9.63;;;;;;;;;;5038416;28;20036;-65
2023/01/19 05:40:19;;;;;;;13.23;10.45;;;;;;;;;;5034950;28;20054;-64
2023/01/19 05:42:44;;;;;;;3.53;3.30;;;;;;;;;;5034457;28;20053;-65
2023/01/19 05:45:13;;;;;;;11.85;9.50;;;;;;;;;;5033957;28;20503;-65
2023/01/19 05:47:39;;;;;;;21.90;12.75;;;;;;;;;;5036770;28;20040;-65
2023/01/19 05:50:05;;;;;;;15.15;9.95;;;;;;;;;;5037298;28;20033;-65
2023/01/19 05:52:30;;;;;;;15.32;10.02;;;;;;;;;;5035360;28;20037;-65
2023/01/19 05:54:56;;;;;;;7.68;6.97;;;;;;;;;;5037039;28;20036;-65
2023/01/19 05:57:22;;;;;;;12.85;9.57;;;;;;;;;;5034800;28;20043;-65
2023/01/19 05:59:48;;;;;;;17.55;9.70;;;;;;;;;;5038811;28;20029;-65
2023/01/19 06:02:14;;;;;;;17.45;12.70;;;;;;;;;;5034014;28;20048;-65
2023/01/19 06:04:40;;;;;;;16.20;11.15;;;;;;;;;;5034282;28;20549;-65
2023/01/19 06:07:05;;;;;;;22.40;11.05;;;;;;;;;;5035412;28;20867;-65
2023/01/19 06:09:32;;;;;;;17.40;11.48;;;;;;;;;;5034373;28;20033;-65
2023/01/19 06:11:58;;;;;;;22.38;12.15;;;;;;;;;;5018744;28;20071;-65
2023/01/19 06:14:25;;;;;;;9.80;7.30;;;;;;;;;;5036117;28;20040;-65
2023/01/19 06:16:51;;;;;;;17.02;11.10;;;;;;;;;;5039119;28;20045;-65
2023/01/19 06:19:16;;;;;;;15.20;9.10;;;;;;;;;;5034323;28;20036;-65
2023/01/19 06:21:48;;;;;;;17.85;10.43;;;;;;;;;;5040369;28;20083;-65
2023/01/19 06:24:15;;;;;;;20.67;10.82;;;;;;;;;;5036276;28;20036;-65
2023/01/19 06:26:42;;;;;;;14.50;9.93;;;;;;;;;;5037323;28;20409;-65
2023/01/19 06:29:10;;;;;;;18.00;11.98;;;;;;;;;;5035800;28;20028;-65
2023/01/19 06:31:35;;;;;;;20.08;11.05;;;;;;;;;;5032850;28;20179;-65
2023/01/19 06:34:01;;;;;;;12.40;9.25;;;;;;;;;;5038689;28;20152;-64
2023/01/19 06:36:26;;;;;;;8.50;6.60;;;;;;;;;;5033027;28;20087;-65
2023/01/19 06:38:52;;;;;;;12.48;8.88;;;;;;;;;;5031966;28;20075;-64
2023/01/19 06:41:18;;;;;;;18.10;10.63;;;;;;;;;;5037326;28;20072;-66
2023/01/19 06:43:43;;;;;;;16.20;9.10;;;;;;;;;;5035915;28;20040;-66
2023/01/19 06:46:09;;;;;;;18.98;9.40;;;;;;;;;;5035642;28;20028;-66
2023/01/19 06:48:34;;;;;;;20.17;11.75;;;;;;;;;;5034576;28;20025;-66
2023/01/19 06:51:00;;;;;;;14.93;9.98;;;;;;;;;;5036647;28;20043;-66
2023/01/19 06:53:27;;;;;;;17.30;12.30;;;;;;;;;;5035496;28;20033;-65
2023/01/19 06:55:53;;;;;;;16.13;11.05;;;;;;;;;;5035704;28;20056;-65
2023/01/19 06:58:18;;;;;;;17.58;11.25;;;;;;;;;;5036640;28;20041;-65
2023/01/19 07:00:44;;;;;;;16.80;10.13;;;;;;;;;;5038768;28;20060;-64
2023/01/19 07:03:18;;;;;;;19.85;10.00;;;;;;;;;;5015633;28;20642;-64
2023/01/19 07:05:43;;;;;;;16.63;11.52;;;;;;;;;;5034707;28;20148;-63
2023/01/19 07:08:09;;;;;;;12.65;7.63;;;;;;;;;;5035590;28;20611;-64
2023/01/19 07:10:35;;;;;;;14.02;10.60;;;;;;;;;;5037698;28;20055;-65
2023/01/19 07:13:00;;;;;;;9.68;7.53;;;;;;;;;;5029933;28;20095;-65
2023/01/19 07:15:26;;;;;;;15.07;9.93;;;;;;;;;;5037674;28;20025;-65
2023/01/19 07:17:51;;;;;;;14.18;9.43;;;;;;;;;;5033504;28;20044;-65
2023/01/19 07:20:18;;;;;;;16.75;9.95;;;;;;;;;;5035419;28;20182;-65
2023/01/19 07:22:45;;;;;;;15.05;8.93;;;;;;;;;;5033867;28;20063;-64
2023/01/19 07:25:12;;;;;;;13.82;9.65;;;;;;;;;;5037253;28;20496;-65
2023/01/19 07:27:37;;;;;;;10.80;7.10;;;;;;;;;;5034332;28;20072;-65
2023/01/19 07:30:03;;;;;;;12.82;8.70;;;;;;;;;;5038735;28;20068;-65
2023/01/19 07:32:29;;;;;;;15.70;10.38;;;;;;;;;;5034767;28;20041;-66
2023/01/19 07:34:54;;;;;;;15.90;9.95;;;;;;;;;;5032394;28;20040;-63
2023/01/19 07:37:20;;;;;;;10.57;7.13;;;;;;;;;;5035673;28;20087;-64
2023/01/19 07:39:46;;;;;;;15.73;10.68;;;;;;;;;;5031938;28;20695;-65
2023/01/19 07:42:11;;;;;;;15.30;9.10;;;;;;;;;;5042432;28;20063;-66
2023/01/19 07:44:37;;;;;;;24.25;12.68;;;;;;;;;;5044865;28;20057;-64
2023/01/19 07:47:04;;;;;;;11.98;7.97;;;;;;;;;;5042305;28;20032;-65
2023/01/19 07:49:30;;;;;;;5.82;5.20;;;;;;;;;;5030979;28;20029;-64
2023/01/19 07:51:56;;;;;;;10.32;6.88;;;;;;;;;;5035235;28;20032;-63
2023/01/19 07:54:22;;;;;;;5.78;5.30;;;;;;;;;;5033198;28;20036;-64
2023/01/19 07:56:47;;;;;;;5.57;5.07;;;;;;;;;;5031023;28;20734;-64
2023/01/19 07:59:13;;;;;;;10.85;8.07;;;;;;;;;;5032908;28;20483;-63
2023/01/19 08:01:39;;;;;;;11.10;7.80;;;;;;;;;;5036041;28;20411;-65
2023/01/19 08:04:05;;;;;;;11.10;6.93;;;;;;;;;;5035995;28;20033;-64
2023/01/19 08:06:36;;;;;;;4.30;4.00;;;;;;;;;;5033736;28;20361;-64
2023/01/19 08:09:04;;;;;;;11.15;7.53;;;;;;;;;;5038604;28;20043;-64
2023/01/19 08:11:30;;;;;;;11.98;9.27;;;;;;;;;;5039010;28;20075;-65
2023/01/19 08:13:56;;;;;;;9.13;6.10;;;;;;;;;;5036753;28;20033;-64
2023/01/19 08:16:22;;;;;;;5.95;5.47;;;;;;;;;;5038066;28;20040;-63
2023/01/19 08:18:47;;;;;;;7.78;6.97;;;;;;;;;;5039690;28;20052;-64
2023/01/19 08:21:13;;;;;;;6.75;6.07;;;;;;;;;;5038993;28;20140;-64
2023/01/19 08:23:38;;;;;;;11.30;8.00;;;;;;;;;;5037401;28;20025;-64
2023/01/19 08:26:18;;;;;;;12.68;7.35;;;;;;;;;;5040299;28;20458;-64
2023/01/19 08:28:44;;;;;;;7.38;6.47;;;;;;;;;;5041472;28;20082;-63
2023/01/19 08:31:09;;;;;;;11.02;7.40;;;;;;;;;;5030920;28;20052;-63
2023/01/19 08:33:35;;;;;;;11.48;8.45;;;;;;;;;;5036852;28;20044;-63
2023/01/19 08:36:01;;;;;;;13.38;8.63;;;;;;;;;;5040732;28;20041;-64
2023/01/19 08:38:26;;;;;;;16.73;8.43;;;;;;;;;;5041257;28;20466;-64
2023/01/19 08:40:52;;;;;;;8.65;6.60;;;;;;;;;;5034794;28;21292;-64
2023/01/19 08:43:17;;;;;;;12.00;8.38;;;;;;;;;;5034209;28;20033;-64
2023/01/19 08:45:50;;;;;;;10.15;7.47;;;;;;;;;;5035811;28;20037;-64
2023/01/19 08:48:20;;;;;;;10.63;7.55;;;;;;;;;;5038436;28;20043;-63
2023/01/19 08:50:47;;;;;;;10.10;8.18;;;;;;;;;;5030670;28;20739;-64
2023/01/19 08:53:14;;;;;;;11.68;7.47;;;;;;;;;;5039332;28;20102;-64
2023/01/19 08:55:39;;;;;;;11.55;7.90;;;;;;;;;;5042502;28;20131;-64
2023/01/19 08:58:07;;;;;;;10.13;8.13;;;;;;;;;;5036492;28;20033;-63
2023/01/19 09:00:34;;;;;;;10.50;7.65;;;;;;;;;;5040032;28;20064;-64
2023/01/19 09:03:02;;;;;;;13.00;8.30;;;;;;;;;;5033148;28;20040;-64
2023/01/19 09:05:30;;;;;;;13.82;7.10;;;;;;;;;;5034700;28;20090;-63
2023/01/19 09:07:56;;;;;;;16.98;8.80;;;;;;;;;;5020546;28;20065;-65
2023/01/19 09:10:21;;;;;;;10.65;8.20;;;;;;;;;;5036037;28;20060;-64
2023/01/19 09:12:47;;;;;;;8.98;7.80;;;;;;;;;;5038327;28;20706;-65
2023/01/19 09:15:13;;;;;;;14.93;10.15;;;;;;;;;;5032019;28;20180;-65
2023/01/19 09:17:42;;;;;;;136.77;47.17;;;;;;;;;;5039843;28;20037;-65
2023/01/19 09:20:08;;;;;;;;;;;;;;;;;;5034722;28;20057;-65
2023/01/19 09:22:33;;;;;;;30.65;16.10;;;;;;;;;;5040268;28;20009;-64
2023/01/19 09:24:59;;;;;;;12.05;7.82;;;;;;;;;;5037279;28;20049;-64
2023/01/19 09:27:25;;;;;;;12.57;8.90;;;;;;;;;;5040504;28;20033;-65
2023/01/19 09:29:53;;;;;;;16.52;9.48;;;;;;;;;;5034166;28;20041;-65
2023/01/19 09:32:20;;;;;;;11.88;7.47;;;;;;;;;;5035229;28;20412;-65
2023/01/19 09:34:46;;;;;;;25.83;9.32;;;;;;;;;;5040747;28;20043;-65
2023/01/19 09:37:12;;;;;;;15.20;9.43;;;;;;;;;;5035288;28;20045;-65
2023/01/19 09:39:38;;;;;;;10.25;7.80;;;;;;;;;;5033951;28;20048;-65
2023/01/19 09:42:41;;;;;;;31.67;13.90;;;;;;;;;;5035131;28;20041;-65
2023/01/19 09:45:21;;;;;;;7.13;6.40;;;;;;;;;;4955464;28;20089;-64
2023/01/19 09:47:48;;;;;;;10.00;7.38;;;;;;;;;;4956687;28;20450;-65
2023/01/19 09:50:36;;;;;;;42.45;18.08;;;;;;;;;;4956636;28;20069;-64
2023/01/19 09:53:12;;;;;;;17.27;8.90;;;;;;;;;;4953406;28;20518;-64
2023/01/19 09:55:40;;;;;;;14.25;9.82;;;;;;;;;;4954741;28;20050;-64
2023/01/19 09:58:15;;;;;;;12.82;9.48;;;;;;;;;;4955346;28;20180;-65
2023/01/19 10:00:46;;;;;;;10.00;7.20;;;;;;;;;;4956561;28;20116;-64
2023/01/19 10:03:16;;;;;;;8.63;6.75;;;;;;;;;;4957176;28;20126;-66
2023/01/19 10:05:53;;;;;;;26.77;18.50;;;;;;;;;;4956065;28;20038;-65
2023/01/19 10:08:27;;;;;;;5.03;4.60;;;;;;;;;;4954331;28;20065;-65
2023/01/19 10:10:55;;;;;;;7.22;6.50;;;;;;;;;;4957606;28;20055;-65
2023/01/19 10:13:55;;;;;;;10.20;7.35;;;;;;;;;;4956254;28;20153;-65
2023/01/19 10:16:44;;;;;;;10.45;7.75;;;;;;;;;;4957993;28;20043;-64
2023/01/19 10:19:27;;;;;;;6.60;5.95;;;;;;;;;;4951057;28;20566;-66
2023/01/19 10:21:58;;;;;;;9.80;6.35;;;;;;;;;;5032629;28;20547;-64
2023/01/19 10:24:32;;;;;;;11.70;6.95;;;;;;;;;;5035878;28;20033;-64
2023/01/19 10:26:57;;;;;;;9.75;7.72;;;;;;;;;;5035423;28;20044;-66
2023/01/19 10:29:35;;;;;;;6.55;5.78;;;;;;;;;;5021806;28;20029;-65
2023/01/19 10:32:22;;;;;;;9.00;6.50;;;;;;;;;;5034772;28;20053;-66
2023/01/19 10:34:50;;;;;;;7.05;6.35;;;;;;;;;;5036489;28;20029;-66
2023/01/19 10:37:29;;;;;;;7.45;6.65;;;;;;;;;;5034648;28;20032;-64
2023/01/19 10:39:57;;;;;;;11.88;6.90;;;;;;;;;;5037944;28;20392;-64
2023/01/19 10:42:28;;;;;;;9.50;7.10;;;;;;;;;;5035036;28;20048;-64
2023/01/19 10:44:54;;;;;;;11.32;7.03;;;;;;;;;;5030396;28;20104;-66
2023/01/19 10:47:26;;;;;;;12.38;6.60;;;;;;;;;;5035109;28;20112;-65
2023/01/19 10:49:51;;;;;;;8.57;6.35;;;;;;;;;;5034098;28;20033;-66
2023/01/19 10:52:29;;;;;;;8.68;6.90;;;;;;;;;;5029895;28;20033;-66
2023/01/19 10:54:56;;;;;;;13.82;7.15;;;;;;;;;;5034499;28;20400;-66
2023/01/19 10:57:31;;;;;;;8.10;6.15;;;;;;;;;;5035871;28;20465;-65
2023/01/19 10:59:57;;;;;;;9.70;6.25;;;;;;;;;;5034954;28;20052;-65
2023/01/19 11:02:28;;;;;;;8.35;5.63;;;;;;;;;;5032219;28;20037;-65
2023/01/19 11:04:59;;;;;;;10.52;6.10;;;;;;;;;;5037325;28;20705;-65
2023/01/19 11:07:25;;;;;;;7.60;6.63;;;;;;;;;;5032614;28;20037;-65
2023/01/19 11:10:16;;;;;;;6.90;5.25;;;;;;;;;;5034993;28;20035;-65
2023/01/19 11:13:02;;;;;;;8.35;5.68;;;;;;;;;;5025927;28;20447;-65
2023/01/19 11:15:43;;;;;;;8.77;5.93;;;;;;;;;;5029921;28;20042;-65
2023/01/19 11:18:32;;;;;;;5.60;5.00;;;;;;;;;;5030294;28;20032;-65
2023/01/19 11:21:01;;;;;;;6.47;5.50;;;;;;;;;;5037220;28;20033;-65
2023/01/19 11:23:29;;;;;;;7.15;4.38;;;;;;;;;;5031307;28;20037;-66
2023/01/19 11:26:00;;;;;;;7.70;5.80;;;;;;;;;;5030798;28;20035;-65
2023/01/19 11:28:30;;;;;;;6.07;5.47;;;;;;;;;;5033403;28;20038;-65
2023/01/19 11:30:59;;;;;;;8.75;5.70;;;;;;;;;;5035032;28;20071;-65
2023/01/19 11:33:55;;;;;;;10.05;6.00;;;;;;;;;;5032846;28;20103;-66
2023/01/19 11:36:21;;;;;;;7.85;5.72;;;;;;;;;;5033367;28;20045;-65
2023/01/19 11:38:52;;;;;;;7.25;5.90;;;;;;;;;;5042254;28;20539;-65
2023/01/19 11:41:28;;;;;;;10.63;5.68;;;;;;;;;;5036150;28;20054;-64
2023/01/19 11:43:57;;;;;;;5.75;5.00;;;;;;;;;;5041746;28;20238;-65
2023/01/19 11:46:25;;;;;;;10.70;6.53;;;;;;;;;;5038793;28;20037;-65
2023/01/19 11:48:55;;;;;;;6.00;5.40;;;;;;;;;;5040564;28;20049;-65
2023/01/19 11:51:23;;;;;;;9.68;6.03;;;;;;;;;;5040223;28;20047;-65
2023/01/19 11:53:51;;;;;;;6.15;5.50;;;;;;;;;;5038207;28;20033;-65
2023/01/19 11:56:22;;;;;;;8.90;6.15;;;;;;;;;;5042127;28;20479;-65
2023/01/19 11:58:48;;;;;;;6.78;5.53;;;;;;;;;;5037934;28;20040;-65
2023/01/19 12:01:14;;;;;;;6.10;5.30;;;;;;;;;;5036303;28;20045;-64
2023/01/19 12:03:45;;;;;;;8.73;5.80;;;;;;;;;;5035493;28;20222;-65
2023/01/19 12:06:15;;;;;;;6.18;4.80;;;;;;;;;;5039715;28;20036;-65
2023/01/19 12:08:47;;;;;;;8.80;6.60;;;;;;;;;;5040464;28;20111;-66
2023/01/19 12:11:23;;;;;;;8.77;5.35;;;;;;;;;;5039860;28;20025;-65
2023/01/19 12:13:52;;;;;;;7.72;5.30;;;;;;;;;;5039137;28;20045;-65
2023/01/19 12:16:25;;;;;;;6.75;5.65;;;;;;;;;;5035008;28;20149;-65
2023/01/19 12:19:06;;;;;;;6.93;6.22;;;;;;;;;;5037369;28;20037;-65
2023/01/19 12:21:31;;;;;;;7.82;6.30;;;;;;;;;;5035441;28;20033;-66
2023/01/19 12:24:19;;;;;;;7.50;5.45;;;;;;;;;;5033707;28;20047;-65
2023/01/19 12:26:52;;;;;;;7.43;5.70;;;;;;;;;;5036056;28;20565;-66
2023/01/19 12:29:21;;;;;;;8.32;5.30;;;;;;;;;;5035660;28;20033;-65
2023/01/19 12:32:11;;;;;;;8.10;6.38;;;;;;;;;;5040974;28;20106;-66
2023/01/19 12:34:55;;;;;;;6.35;5.60;;;;;;;;;;5040400;28;20263;-65
2023/01/19 12:37:30;;;;;;;6.97;5.43;;;;;;;;;;5042533;28;20037;-65
2023/01/19 12:40:01;;;;;;;11.32;6.30;;;;;;;;;;5038201;28;20148;-65
2023/01/19 12:42:28;;;;;;;10.95;6.22;;;;;;;;;;5036384;28;20036;-65
2023/01/19 12:45:07;;;;;;;12.57;6.10;;;;;;;;;;5037990;28;20033;-65
2023/01/19 12:47:33;;;;;;;8.18;5.80;;;;;;;;;;5039569;28;20045;-65
2023/01/19 12:50:05;;;;;;;8.75;6.28;;;;;;;;;;5034024;28;20037;-65
2023/01/19 12:52:34;;;;;;;7.75;6.18;;;;;;;;;;5031678;28;20060;-65
2023/01/19 12:55:01;;;;;;;7.40;5.40;;;;;;;;;;5038794;28;20033;-65
2023/01/19 12:57:30;;;;;;;7.97;6.20;;;;;;;;;;5035674;28;20433;-65
2023/01/19 13:00:01;;;;;;;8.73;6.20;;;;;;;;;;5033507;28;20072;-65
2023/01/19 13:02:27;;;;;;;7.93;6.00;;;;;;;;;;5032984;28;20037;-65
2023/01/19 13:05:11;;;;;;;6.28;5.45;;;;;;;;;;5040100;28;20041;-65
2023/01/19 13:08:01;;;;;;;9.80;6.60;;;;;;;;;;5038080;28;20244;-65
2023/01/19 13:10:52;;;;;;;11.07;6.25;;;;;;;;;;5035474;28;20047;-65
2023/01/19 13:13:26;;;;;;;10.02;6.85;;;;;;;;;;5032357;28;20112;-65
2023/01/19 13:15:53;;;;;;;7.28;6.18;;;;;;;;;;5035021;28;20065;-65
2023/01/19 13:18:24;;;;;;;7.93;5.95;;;;;;;;;;5037275;28;20071;-65
2023/01/19 13:21:00;;;;;;;10.48;6.65;;;;;;;;;;5031657;28;20041;-65
2023/01/19 13:23:28;;;;;;;3.95;3.72;;;;;;;;;;5032780;28;20270;-65
2023/01/19 13:26:01;;;;;;;6.07;5.47;;;;;;;;;;5037703;28;20508;-64
2023/01/19 13:28:45;;;;;;;12.45;6.70;;;;;;;;;;5034019;28;20040;-66
2023/01/19 13:31:12;;;;;;;9.75;6.93;;;;;;;;;;5037718;28;20032;-65
2023/01/19 13:33:46;;;;;;;10.05;7.38;;;;;;;;;;5035735;28;20562;-64
2023/01/19 13:36:19;;;;;;;9.70;5.50;;;;;;;;;;5031317;28;20041;-64
2023/01/19 13:38:46;;;;;;;5.10;4.70;;;;;;;;;;5033645;28;20032;-64
2023/01/19 13:41:17;;;;;;;17.95;11.35;;;;;;;;;;5036568;28;20500;-65
2023/01/19 13:43:43;;;;;;;13.98;8.00;;;;;;;;;;5032148;28;20044;-64
2023/01/19 13:46:13;;;;;;;6.32;5.72;;;;;;;;;;5034319;28;20021;-64
2023/01/19 13:48:38;;;;;;;6.95;5.40;;;;;;;;;;5037176;28;20112;-64
2023/01/19 13:51:07;;;;;;;8.32;6.88;;;;;;;;;;5035190;28;20549;-64
2023/01/19 13:53:33;;;;;;;17.55;9.45;;;;;;;;;;5035551;28;20041;-64
2023/01/19 13:56:11;;;;;;;14.43;6.47;;;;;;;;;;5027900;28;20032;-64
2023/01/19 13:58:37;;;;;;;12.07;6.68;;;;;;;;;;5037032;28;20488;-63
2023/01/19 14:01:03;;;;;;;6.88;5.18;;;;;;;;;;5032675;28;20048;-64
2023/01/19 14:03:28;;;;;;;8.80;5.65;;;;;;;;;;5031817;28;20044;-66
2023/01/19 14:05:54;;;;;;;7.85;6.25;;;;;;;;;;5036913;28;20044;-66
2023/01/19 14:08:21;;;;;;;7.28;6.10;;;;;;;;;;5032639;28;20392;-66
2023/01/19 14:10:55;;;;;;;7.13;5.80;;;;;;;;;;5035172;28;20055;-66
2023/01/19 14:13:32;;;;;;;9.55;6.22;;;;;;;;;;5031897;28;20037;-65
2023/01/19 14:16:26;;;;;;;13.38;7.55;;;;;;;;;;5036668;28;20036;-65
2023/01/19 14:19:00;;;;;;;11.65;6.57;;;;;;;;;;5027679;28;20088;-66
2023/01/19 14:21:36;;;;;;;11.85;7.53;;;;;;;;;;5033882;28;20037;-65
2023/01/19 14:24:05;;;;;;;8.20;6.85;;;;;;;;;;5032862;28;20383;-65
2023/01/19 14:26:36;;;;;;;21.08;9.80;;;;;;;;;;5030704;28;20037;-65
2023/01/19 14:29:20;;;;;;;13.60;8.70;;;;;;;;;;5032712;28;20467;-66
2023/01/19 14:31:51;;;;;;;10.40;7.70;;;;;;;;;;5038951;28;20122;-66
2023/01/19 14:34:43;;;;;;;11.90;7.32;;;;;;;;;;5030536;28;20547;-66
2023/01/19 14:37:18;;;;;;;9.52;6.45;;;;;;;;;;5035977;28;20060;-66
2023/01/19 14:39:56;;;;;;;10.35;7.80;;;;;;;;;;5034342;28;20071;-65
2023/01/19 14:42:26;;;;;;;10.07;7.50;;;;;;;;;;5032532;28;20039;-65
2023/01/19 14:44:53;;;;;;;10.40;6.18;;;;;;;;;;5032220;28;20377;-65
2023/01/19 14:47:34;;;;;;;9.23;6.75;;;;;;;;;;5038241;28;20508;-65
2023/01/19 14:50:23;;;;;;;10.77;6.25;;;;;;;;;;5034314;28;20067;-65
2023/01/19 14:53:01;;;;;;;7.20;6.30;;;;;;;;;;5033915;28;20035;-64
2023/01/19 14:55:53;;;;;;;10.73;6.30;;;;;;;;;;5029740;28;20591;-65
2023/01/19 14:58:20;;;;;;;11.13;10.02;;;;;;;;;;5028266;28;20903;-65